This is the latest recevied weather packets stored in our database for station/object W4CKA. If no packets are shown the sender has not sent any weather packets the latest 10 day(s).
| Time | Temp. | Humidity | Pressure | Rain* | Wind** | Luminosity | Snow |
|---|---|---|---|---|---|---|---|
| 1777698823 | 12.22° C | 67% | 1057 hPa | 0 mm | - | 0 W/m² | - |
| 1777698221 | 12.22° C | 68% | 1056.8 hPa | 0 mm | - | 0 W/m² | - |
| 1777697620 | 12.22° C | 68% | 1056.9 hPa | 0 mm | - | 0 W/m² | - |
| 1777697019 | 12.22° C | 69% | 1056.6 hPa | 0 mm | - | 0 W/m² | - |
| 1777696415 | 12.78° C | 69% | 1056.4 hPa | 0 mm | - | 0 W/m² | - |
| 1777695812 | 12.22° C | 70% | 1056.5 hPa | 0 mm | - | 0 W/m² | - |
| 1777695212 | 12.22° C | 70% | 1056.8 hPa | 0 mm | - | 0 W/m² | - |
| 1777694612 | 12.78° C | 69% | 1056.6 hPa | 0 mm | - | 0 W/m² | - |
| 1777694011 | 12.78° C | 69% | 1056.6 hPa | 0 mm | - | 0 W/m² | - |
| 1777693406 | 12.78° C | 68% | 1056.5 hPa | 0 mm | - | 0 W/m² | - |
| 1777692802 | 12.78° C | 69% | 1056.4 hPa | 0 mm | - | 0 W/m² | - |
| 1777692200 | 12.78° C | 70% | 1056.3 hPa | 0 mm | - | 0 W/m² | - |
| 1777691596 | 13.33° C | 69% | 1056.3 hPa | 0 mm | - | 0 W/m² | - |
| 1777690992 | 13.33° C | 69% | 1056.5 hPa | 0 mm | - | 0 W/m² | - |
| 1777690387 | 13.33° C | 71% | 1056.6 hPa | 0 mm | - | 0 W/m² | - |
| 1777689788 | 13.89° C | 69% | 1056.5 hPa | 0 mm | - | 0 W/m² | - |
| 1777689183 | 13.89° C | 68% | 1056.4 hPa | 0 mm | - | 0 W/m² | - |
| 1777688583 | 13.89° C | 69% | 1056.4 hPa | 0 mm | - | 0 W/m² | - |
| 1777687982 | 14.44° C | 68% | 1056.4 hPa | 0 mm | - | 0 W/m² | - |
| 1777687383 | 14.44° C | 68% | 1055.9 hPa | 0 mm | - | 0 W/m² | - |
| 1777686782 | 14.44° C | 68% | 1055.5 hPa | 0 mm | - | 0 W/m² | - |
| 1777686183 | 15° C | 66% | 1055.7 hPa | 0 mm | - | 0 W/m² | - |
| 1777685580 | 15° C | 65% | 1055.3 hPa | 0 mm | - | 0 W/m² | - |
| 1777684981 | 15° C | 62% | 1055.2 hPa | 0 mm | - | 0 W/m² | - |
| 1777684380 | 15.56° C | 57% | 1054.8 hPa | 0 mm | - | 0 W/m² | - |
* Rain latest hour (hover to see other rain measurements)
** Current wind speed in m/s (hover to see current wind gust speed)